sensor_id;sensor_type;location;lat;lon;timestamp;P1;durP1;ratioP1;P2;durP2;ratioP2
28353;SDS011;15603;50.878;8.036;2023-05-07T00:02:01;4.18;;;1.58;;
28353;SDS011;15603;50.878;8.036;2023-05-07T00:04:30;10.18;;;1.80;;
28353;SDS011;15603;50.878;8.036;2023-05-07T00:07:03;7.45;;;1.80;;
28353;SDS011;15603;50.878;8.036;2023-05-07T00:09:31;3.40;;;1.33;;
28353;SDS011;15603;50.878;8.036;2023-05-07T00:11:58;5.40;;;1.40;;
28353;SDS011;15603;50.878;8.036;2023-05-07T00:14:25;5.60;;;1.33;;
28353;SDS011;15603;50.878;8.036;2023-05-07T00:16:52;3.80;;;1.63;;
28353;SDS011;15603;50.878;8.036;2023-05-07T00:19:19;6.75;;;1.42;;
28353;SDS011;15603;50.878;8.036;2023-05-07T00:21:46;5.28;;;2.03;;
28353;SDS011;15603;50.878;8.036;2023-05-07T00:24:13;4.35;;;1.77;;
28353;SDS011;15603;50.878;8.036;2023-05-07T00:26:40;2.28;;;1.52;;
28353;SDS011;15603;50.878;8.036;2023-05-07T00:29:07;5.18;;;1.65;;
28353;SDS011;15603;50.878;8.036;2023-05-07T00:31:34;4.20;;;1.60;;
28353;SDS011;15603;50.878;8.036;2023-05-07T00:34:02;3.75;;;1.45;;
28353;SDS011;15603;50.878;8.036;2023-05-07T00:36:29;3.42;;;1.60;;
28353;SDS011;15603;50.878;8.036;2023-05-07T00:38:57;5.18;;;0.93;;
28353;SDS011;15603;50.878;8.036;2023-05-07T00:41:26;9.90;;;1.77;;
28353;SDS011;15603;50.878;8.036;2023-05-07T00:43:53;2.83;;;1.17;;
28353;SDS011;15603;50.878;8.036;2023-05-07T00:46:20;4.35;;;1.13;;
28353;SDS011;15603;50.878;8.036;2023-05-07T00:48:48;2.65;;;0.93;;
28353;SDS011;15603;50.878;8.036;2023-05-07T00:51:17;1.63;;;0.98;;
28353;SDS011;15603;50.878;8.036;2023-05-07T00:53:45;3.67;;;1.20;;
28353;SDS011;15603;50.878;8.036;2023-05-07T00:56:13;3.00;;;1.30;;
28353;SDS011;15603;50.878;8.036;2023-05-07T00:58:40;4.25;;;1.17;;
28353;SDS011;15603;50.878;8.036;2023-05-07T01:01:07;4.07;;;1.10;;
28353;SDS011;15603;50.878;8.036;2023-05-07T01:03:34;7.10;;;1.23;;
28353;SDS011;15603;50.878;8.036;2023-05-07T01:06:02;4.95;;;1.40;;
28353;SDS011;15603;50.878;8.036;2023-05-07T01:08:32;1.35;;;0.90;;
28353;SDS011;15603;50.878;8.036;2023-05-07T01:10:59;5.15;;;1.30;;
28353;SDS011;15603;50.878;8.036;2023-05-07T01:13:27;2.90;;;1.45;;
28353;SDS011;15603;50.878;8.036;2023-05-07T01:15:55;2.33;;;1.00;;
28353;SDS011;15603;50.878;8.036;2023-05-07T01:18:22;1.80;;;0.93;;
28353;SDS011;15603;50.878;8.036;2023-05-07T01:20:49;2.92;;;1.30;;
28353;SDS011;15603;50.878;8.036;2023-05-07T01:23:17;1.85;;;1.42;;
28353;SDS011;15603;50.878;8.036;2023-05-07T01:25:54;7.43;;;1.42;;
28353;SDS011;15603;50.878;8.036;2023-05-07T01:28:24;5.15;;;1.30;;
28353;SDS011;15603;50.878;8.036;2023-05-07T01:30:56;4.20;;;1.52;;
28353;SDS011;15603;50.878;8.036;2023-05-07T01:33:29;3.95;;;1.40;;
28353;SDS011;15603;50.878;8.036;2023-05-07T01:35:59;6.68;;;1.27;;
28353;SDS011;15603;50.878;8.036;2023-05-07T01:38:30;2.45;;;1.08;;
28353;SDS011;15603;50.878;8.036;2023-05-07T01:40:57;2.88;;;1.20;;
28353;SDS011;15603;50.878;8.036;2023-05-07T01:43:25;7.53;;;1.58;;
28353;SDS011;15603;50.878;8.036;2023-05-07T01:45:52;3.83;;;1.00;;
28353;SDS011;15603;50.878;8.036;2023-05-07T01:48:19;4.25;;;1.67;;
28353;SDS011;15603;50.878;8.036;2023-05-07T01:50:47;4.35;;;1.40;;
28353;SDS011;15603;50.878;8.036;2023-05-07T01:53:14;4.40;;;1.40;;
28353;SDS011;15603;50.878;8.036;2023-05-07T01:55:42;3.03;;;1.60;;
28353;SDS011;15603;50.878;8.036;2023-05-07T01:58:09;5.53;;;1.42;;
28353;SDS011;15603;50.878;8.036;2023-05-07T02:00:37;4.13;;;1.40;;
28353;SDS011;15603;50.878;8.036;2023-05-07T02:03:04;4.63;;;1.20;;
28353;SDS011;15603;50.878;8.036;2023-05-07T02:05:40;3.42;;;1.30;;
28353;SDS011;15603;50.878;8.036;2023-05-07T02:08:14;3.70;;;1.05;;
28353;SDS011;15603;50.878;8.036;2023-05-07T02:10:41;3.72;;;1.10;;
28353;SDS011;15603;50.878;8.036;2023-05-07T02:13:09;2.13;;;1.05;;
28353;SDS011;15603;50.878;8.036;2023-05-07T02:15:37;5.97;;;1.05;;
28353;SDS011;15603;50.878;8.036;2023-05-07T02:18:05;3.90;;;1.02;;
28353;SDS011;15603;50.878;8.036;2023-05-07T02:20:33;3.45;;;0.95;;
28353;SDS011;15603;50.878;8.036;2023-05-07T02:23:01;2.38;;;1.10;;
28353;SDS011;15603;50.878;8.036;2023-05-07T02:25:29;3.47;;;1.20;;
28353;SDS011;15603;50.878;8.036;2023-05-07T02:27:57;5.13;;;1.30;;
28353;SDS011;15603;50.878;8.036;2023-05-07T02:30:35;2.60;;;0.82;;
28353;SDS011;15603;50.878;8.036;2023-05-07T02:33:03;2.90;;;1.30;;
28353;SDS011;15603;50.878;8.036;2023-05-07T02:35:31;2.17;;;0.95;;
28353;SDS011;15603;50.878;8.036;2023-05-07T02:37:58;2.35;;;0.90;;
28353;SDS011;15603;50.878;8.036;2023-05-07T02:40:25;3.45;;;1.35;;
28353;SDS011;15603;50.878;8.036;2023-05-07T02:42:52;3.95;;;1.38;;
28353;SDS011;15603;50.878;8.036;2023-05-07T02:45:20;5.78;;;1.23;;
28353;SDS011;15603;50.878;8.036;2023-05-07T02:47:49;9.00;;;1.40;;
28353;SDS011;15603;50.878;8.036;2023-05-07T02:50:16;3.05;;;1.50;;
28353;SDS011;15603;50.878;8.036;2023-05-07T02:52:43;8.75;;;1.75;;
28353;SDS011;15603;50.878;8.036;2023-05-07T02:55:10;6.45;;;1.77;;
28353;SDS011;15603;50.878;8.036;2023-05-07T02:57:37;7.50;;;1.95;;
28353;SDS011;15603;50.878;8.036;2023-05-07T03:00:12;2.53;;;1.33;;
28353;SDS011;15603;50.878;8.036;2023-05-07T03:02:47;3.60;;;1.20;;
28353;SDS011;15603;50.878;8.036;2023-05-07T03:05:14;2.35;;;1.30;;
28353;SDS011;15603;50.878;8.036;2023-05-07T03:07:41;4.50;;;1.77;;
28353;SDS011;15603;50.878;8.036;2023-05-07T03:10:12;2.33;;;1.05;;
28353;SDS011;15603;50.878;8.036;2023-05-07T03:12:39;6.25;;;1.20;;
28353;SDS011;15603;50.878;8.036;2023-05-07T03:15:09;2.75;;;0.90;;
28353;SDS011;15603;50.878;8.036;2023-05-07T03:17:37;2.65;;;1.17;;
28353;SDS011;15603;50.878;8.036;2023-05-07T03:20:04;4.85;;;2.22;;
28353;SDS011;15603;50.878;8.036;2023-05-07T03:22:32;5.50;;;1.45;;
28353;SDS011;15603;50.878;8.036;2023-05-07T03:24:59;8.38;;;1.13;;
28353;SDS011;15603;50.878;8.036;2023-05-07T03:27:26;2.45;;;1.10;;
28353;SDS011;15603;50.878;8.036;2023-05-07T03:29:54;2.58;;;0.95;;
28353;SDS011;15603;50.878;8.036;2023-05-07T03:32:21;2.55;;;1.00;;
28353;SDS011;15603;50.878;8.036;2023-05-07T03:34:48;3.50;;;1.27;;
28353;SDS011;15603;50.878;8.036;2023-05-07T03:37:15;3.05;;;1.20;;
28353;SDS011;15603;50.878;8.036;2023-05-07T03:39:43;2.65;;;1.40;;
28353;SDS011;15603;50.878;8.036;2023-05-07T03:42:10;4.18;;;1.55;;
28353;SDS011;15603;50.878;8.036;2023-05-07T03:44:37;4.55;;;1.40;;
28353;SDS011;15603;50.878;8.036;2023-05-07T03:47:04;3.25;;;1.40;;
28353;SDS011;15603;50.878;8.036;2023-05-07T03:49:32;2.58;;;1.20;;
28353;SDS011;15603;50.878;8.036;2023-05-07T03:51:59;3.20;;;1.45;;
28353;SDS011;15603;50.878;8.036;2023-05-07T03:54:26;3.80;;;1.45;;
28353;SDS011;15603;50.878;8.036;2023-05-07T03:56:53;5.93;;;1.77;;
28353;SDS011;15603;50.878;8.036;2023-05-07T03:59:21;6.10;;;1.83;;
28353;SDS011;15603;50.878;8.036;2023-05-07T04:01:49;1.85;;;1.13;;
28353;SDS011;15603;50.878;8.036;2023-05-07T04:04:19;3.22;;;1.30;;
28353;SDS011;15603;50.878;8.036;2023-05-07T04:06:47;3.28;;;1.30;;
28353;SDS011;15603;50.878;8.036;2023-05-07T04:09:14;2.97;;;1.13;;
28353;SDS011;15603;50.878;8.036;2023-05-07T04:11:41;9.10;;;1.55;;
28353;SDS011;15603;50.878;8.036;2023-05-07T04:14:10;2.42;;;1.27;;
28353;SDS011;15603;50.878;8.036;2023-05-07T04:16:37;2.25;;;1.38;;
28353;SDS011;15603;50.878;8.036;2023-05-07T04:19:05;3.30;;;1.40;;
28353;SDS011;15603;50.878;8.036;2023-05-07T04:21:32;6.95;;;1.38;;
28353;SDS011;15603;50.878;8.036;2023-05-07T04:23:59;3.05;;;1.45;;
28353;SDS011;15603;50.878;8.036;2023-05-07T04:26:26;4.45;;;1.77;;
28353;SDS011;15603;50.878;8.036;2023-05-07T04:28:53;3.58;;;1.45;;
28353;SDS011;15603;50.878;8.036;2023-05-07T04:31:20;3.58;;;1.27;;
28353;SDS011;15603;50.878;8.036;2023-05-07T04:33:51;3.85;;;1.33;;
28353;SDS011;15603;50.878;8.036;2023-05-07T04:36:19;2.97;;;1.30;;
28353;SDS011;15603;50.878;8.036;2023-05-07T04:38:56;2.53;;;1.30;;
28353;SDS011;15603;50.878;8.036;2023-05-07T04:41:23;2.33;;;1.17;;
28353;SDS011;15603;50.878;8.036;2023-05-07T04:43:50;2.85;;;1.50;;
28353;SDS011;15603;50.878;8.036;2023-05-07T04:46:20;3.78;;;1.30;;
28353;SDS011;15603;50.878;8.036;2023-05-07T04:48:49;3.88;;;1.73;;
28353;SDS011;15603;50.878;8.036;2023-05-07T04:51:16;3.20;;;1.40;;
28353;SDS011;15603;50.878;8.036;2023-05-07T04:53:43;3.75;;;1.60;;
28353;SDS011;15603;50.878;8.036;2023-05-07T04:56:10;2.25;;;1.67;;
28353;SDS011;15603;50.878;8.036;2023-05-07T04:58:41;7.45;;;1.90;;
28353;SDS011;15603;50.878;8.036;2023-05-07T05:01:08;4.45;;;1.17;;
28353;SDS011;15603;50.878;8.036;2023-05-07T05:03:36;3.30;;;1.38;;
28353;SDS011;15603;50.878;8.036;2023-05-07T05:06:03;3.38;;;1.35;;
28353;SDS011;15603;50.878;8.036;2023-05-07T05:08:33;2.92;;;1.40;;
28353;SDS011;15603;50.878;8.036;2023-05-07T05:11:02;4.80;;;1.70;;
28353;SDS011;15603;50.878;8.036;2023-05-07T05:13:31;8.05;;;2.28;;
28353;SDS011;15603;50.878;8.036;2023-05-07T05:16:00;4.18;;;1.13;;
28353;SDS011;15603;50.878;8.036;2023-05-07T05:18:30;3.53;;;1.55;;
28353;SDS011;15603;50.878;8.036;2023-05-07T05:20:57;3.35;;;1.50;;
28353;SDS011;15603;50.878;8.036;2023-05-07T05:23:25;4.03;;;1.55;;
28353;SDS011;15603;50.878;8.036;2023-05-07T05:25:55;2.92;;;1.38;;
28353;SDS011;15603;50.878;8.036;2023-05-07T05:28:26;5.70;;;1.40;;
28353;SDS011;15603;50.878;8.036;2023-05-07T05:30:54;2.70;;;1.23;;
28353;SDS011;15603;50.878;8.036;2023-05-07T05:33:23;3.50;;;1.20;;
28353;SDS011;15603;50.878;8.036;2023-05-07T05:35:50;3.45;;;1.70;;
28353;SDS011;15603;50.878;8.036;2023-05-07T05:38:17;2.13;;;1.70;;
28353;SDS011;15603;50.878;8.036;2023-05-07T05:40:44;3.75;;;1.65;;
28353;SDS011;15603;50.878;8.036;2023-05-07T05:43:12;2.92;;;1.55;;
28353;SDS011;15603;50.878;8.036;2023-05-07T05:45:40;6.00;;;1.55;;
28353;SDS011;15603;50.878;8.036;2023-05-07T05:48:07;6.30;;;1.48;;
28353;SDS011;15603;50.878;8.036;2023-05-07T05:50:35;6.38;;;2.08;;
28353;SDS011;15603;50.878;8.036;2023-05-07T05:53:04;4.40;;;1.88;;
28353;SDS011;15603;50.878;8.036;2023-05-07T05:55:32;2.38;;;1.58;;
28353;SDS011;15603;50.878;8.036;2023-05-07T05:58:00;2.70;;;1.45;;
28353;SDS011;15603;50.878;8.036;2023-05-07T06:00:29;7.72;;;2.35;;
28353;SDS011;15603;50.878;8.036;2023-05-07T06:03:01;4.35;;;1.70;;
28353;SDS011;15603;50.878;8.036;2023-05-07T06:05:29;6.53;;;1.38;;
28353;SDS011;15603;50.878;8.036;2023-05-07T06:07:56;3.10;;;1.85;;
28353;SDS011;15603;50.878;8.036;2023-05-07T06:10:26;2.97;;;1.65;;
28353;SDS011;15603;50.878;8.036;2023-05-07T06:12:54;7.15;;;2.08;;
28353;SDS011;15603;50.878;8.036;2023-05-07T06:15:21;5.30;;;2.20;;
28353;SDS011;15603;50.878;8.036;2023-05-07T06:17:49;24.70;;;4.97;;
28353;SDS011;15603;50.878;8.036;2023-05-07T06:20:17;8.52;;;2.50;;
28353;SDS011;15603;50.878;8.036;2023-05-07T06:22:44;6.38;;;2.40;;
28353;SDS011;15603;50.878;8.036;2023-05-07T06:25:14;4.15;;;2.15;;
28353;SDS011;15603;50.878;8.036;2023-05-07T06:27:42;4.85;;;2.50;;
28353;SDS011;15603;50.878;8.036;2023-05-07T06:30:24;5.32;;;2.85;;
28353;SDS011;15603;50.878;8.036;2023-05-07T06:32:52;4.97;;;2.17;;
28353;SDS011;15603;50.878;8.036;2023-05-07T06:35:19;5.80;;;2.05;;
28353;SDS011;15603;50.878;8.036;2023-05-07T06:37:46;6.07;;;2.50;;
28353;SDS011;15603;50.878;8.036;2023-05-07T06:40:18;4.37;;;2.40;;
28353;SDS011;15603;50.878;8.036;2023-05-07T06:42:46;2.72;;;2.30;;
28353;SDS011;15603;50.878;8.036;2023-05-07T06:45:36;4.22;;;2.28;;
28353;SDS011;15603;50.878;8.036;2023-05-07T06:48:04;5.18;;;2.28;;
28353;SDS011;15603;50.878;8.036;2023-05-07T06:50:38;4.97;;;2.97;;
28353;SDS011;15603;50.878;8.036;2023-05-07T06:53:05;4.22;;;2.28;;
28353;SDS011;15603;50.878;8.036;2023-05-07T06:55:32;3.65;;;2.47;;
28353;SDS011;15603;50.878;8.036;2023-05-07T06:58:00;3.97;;;2.78;;
28353;SDS011;15603;50.878;8.036;2023-05-07T07:00:28;8.00;;;2.45;;
28353;SDS011;15603;50.878;8.036;2023-05-07T07:02:56;5.35;;;2.53;;
28353;SDS011;15603;50.878;8.036;2023-05-07T07:05:26;3.35;;;2.10;;
28353;SDS011;15603;50.878;8.036;2023-05-07T07:07:54;3.53;;;2.40;;
28353;SDS011;15603;50.878;8.036;2023-05-07T07:10:21;5.78;;;2.28;;
28353;SDS011;15603;50.878;8.036;2023-05-07T07:12:50;5.10;;;2.65;;
28353;SDS011;15603;50.878;8.036;2023-05-07T07:15:19;5.55;;;2.42;;
28353;SDS011;15603;50.878;8.036;2023-05-07T07:17:52;5.75;;;2.22;;
28353;SDS011;15603;50.878;8.036;2023-05-07T07:20:20;8.18;;;2.28;;
28353;SDS011;15603;50.878;8.036;2023-05-07T07:22:47;4.00;;;2.17;;
28353;SDS011;15603;50.878;8.036;2023-05-07T07:25:16;5.72;;;2.45;;
28353;SDS011;15603;50.878;8.036;2023-05-07T07:27:47;2.67;;;2.10;;
28353;SDS011;15603;50.878;8.036;2023-05-07T07:30:15;4.60;;;1.90;;
28353;SDS011;15603;50.878;8.036;2023-05-07T07:32:46;5.82;;;2.00;;
28353;SDS011;15603;50.878;8.036;2023-05-07T07:35:14;5.10;;;2.20;;
28353;SDS011;15603;50.878;8.036;2023-05-07T07:37:41;2.10;;;1.83;;
28353;SDS011;15603;50.878;8.036;2023-05-07T07:40:09;5.25;;;2.33;;
28353;SDS011;15603;50.878;8.036;2023-05-07T07:42:38;4.97;;;2.25;;
28353;SDS011;15603;50.878;8.036;2023-05-07T07:45:06;2.78;;;1.80;;
28353;SDS011;15603;50.878;8.036;2023-05-07T07:47:38;3.28;;;2.05;;
28353;SDS011;15603;50.878;8.036;2023-05-07T07:50:07;8.70;;;1.80;;
28353;SDS011;15603;50.878;8.036;2023-05-07T07:52:35;6.35;;;2.30;;
28353;SDS011;15603;50.878;8.036;2023-05-07T07:55:02;5.03;;;2.05;;
28353;SDS011;15603;50.878;8.036;2023-05-07T07:57:30;3.38;;;1.90;;
28353;SDS011;15603;50.878;8.036;2023-05-07T07:59:57;5.95;;;1.83;;
28353;SDS011;15603;50.878;8.036;2023-05-07T08:02:24;5.05;;;2.40;;
28353;SDS011;15603;50.878;8.036;2023-05-07T08:04:52;9.15;;;2.38;;
28353;SDS011;15603;50.878;8.036;2023-05-07T08:07:19;3.65;;;2.35;;
28353;SDS011;15603;50.878;8.036;2023-05-07T08:09:48;2.90;;;2.08;;
28353;SDS011;15603;50.878;8.036;2023-05-07T08:12:18;3.85;;;1.70;;
28353;SDS011;15603;50.878;8.036;2023-05-07T08:14:45;6.85;;;3.17;;
28353;SDS011;15603;50.878;8.036;2023-05-07T08:17:12;6.72;;;2.20;;
28353;SDS011;15603;50.878;8.036;2023-05-07T08:19:43;5.22;;;2.40;;
28353;SDS011;15603;50.878;8.036;2023-05-07T08:22:12;5.55;;;2.45;;
28353;SDS011;15603;50.878;8.036;2023-05-07T08:24:40;2.90;;;2.03;;
28353;SDS011;15603;50.878;8.036;2023-05-07T08:27:07;3.33;;;2.00;;
28353;SDS011;15603;50.878;8.036;2023-05-07T08:29:34;7.75;;;2.42;;
28353;SDS011;15603;50.878;8.036;2023-05-07T08:32:02;3.38;;;2.42;;
28353;SDS011;15603;50.878;8.036;2023-05-07T08:34:29;2.90;;;1.92;;
28353;SDS011;15603;50.878;8.036;2023-05-07T08:36:58;6.95;;;2.70;;
28353;SDS011;15603;50.878;8.036;2023-05-07T08:39:25;5.30;;;2.60;;
28353;SDS011;15603;50.878;8.036;2023-05-07T08:41:54;3.80;;;2.35;;
28353;SDS011;15603;50.878;8.036;2023-05-07T08:44:25;5.60;;;2.75;;
28353;SDS011;15603;50.878;8.036;2023-05-07T08:46:56;4.35;;;2.53;;
28353;SDS011;15603;50.878;8.036;2023-05-07T08:49:24;3.28;;;2.75;;
28353;SDS011;15603;50.878;8.036;2023-05-07T08:51:52;7.03;;;2.70;;
28353;SDS011;15603;50.878;8.036;2023-05-07T08:54:20;5.07;;;2.10;;
28353;SDS011;15603;50.878;8.036;2023-05-07T08:56:48;6.22;;;2.20;;
28353;SDS011;15603;50.878;8.036;2023-05-07T08:59:15;4.32;;;2.47;;
28353;SDS011;15603;50.878;8.036;2023-05-07T09:01:43;5.70;;;2.40;;
28353;SDS011;15603;50.878;8.036;2023-05-07T09:04:11;6.40;;;2.33;;
28353;SDS011;15603;50.878;8.036;2023-05-07T09:06:40;5.82;;;2.00;;
28353;SDS011;15603;50.878;8.036;2023-05-07T09:09:10;4.72;;;2.35;;
28353;SDS011;15603;50.878;8.036;2023-05-07T09:11:41;11.35;;;2.58;;
28353;SDS011;15603;50.878;8.036;2023-05-07T09:14:09;4.93;;;2.55;;
28353;SDS011;15603;50.878;8.036;2023-05-07T09:16:40;10.27;;;2.60;;
28353;SDS011;15603;50.878;8.036;2023-05-07T09:19:07;4.38;;;2.53;;
28353;SDS011;15603;50.878;8.036;2023-05-07T09:21:35;3.95;;;2.40;;
28353;SDS011;15603;50.878;8.036;2023-05-07T09:24:06;7.32;;;2.60;;
28353;SDS011;15603;50.878;8.036;2023-05-07T09:26:37;5.70;;;2.45;;
28353;SDS011;15603;50.878;8.036;2023-05-07T09:29:07;2.80;;;2.00;;
28353;SDS011;15603;50.878;8.036;2023-05-07T09:31:37;6.57;;;2.65;;
28353;SDS011;15603;50.878;8.036;2023-05-07T09:34:06;4.22;;;2.30;;
28353;SDS011;15603;50.878;8.036;2023-05-07T09:36:36;5.32;;;2.45;;
28353;SDS011;15603;50.878;8.036;2023-05-07T09:39:03;5.25;;;2.38;;
28353;SDS011;15603;50.878;8.036;2023-05-07T09:41:30;4.80;;;2.60;;
28353;SDS011;15603;50.878;8.036;2023-05-07T09:44:08;4.47;;;2.40;;
28353;SDS011;15603;50.878;8.036;2023-05-07T09:46:44;5.40;;;2.40;;
28353;SDS011;15603;50.878;8.036;2023-05-07T09:49:22;10.35;;;2.72;;
28353;SDS011;15603;50.878;8.036;2023-05-07T09:51:56;5.13;;;2.22;;
28353;SDS011;15603;50.878;8.036;2023-05-07T09:54:26;4.40;;;2.47;;
28353;SDS011;15603;50.878;8.036;2023-05-07T09:56:58;3.45;;;2.03;;
28353;SDS011;15603;50.878;8.036;2023-05-07T09:59:29;13.48;;;2.53;;
28353;SDS011;15603;50.878;8.036;2023-05-07T10:02:01;11.48;;;2.05;;
28353;SDS011;15603;50.878;8.036;2023-05-07T10:04:37;7.18;;;2.33;;
28353;SDS011;15603;50.878;8.036;2023-05-07T10:07:07;3.75;;;2.50;;
28353;SDS011;15603;50.878;8.036;2023-05-07T10:09:36;6.53;;;2.95;;
28353;SDS011;15603;50.878;8.036;2023-05-07T10:12:08;9.80;;;2.57;;
28353;SDS011;15603;50.878;8.036;2023-05-07T10:14:36;3.90;;;2.75;;
28353;SDS011;15603;50.878;8.036;2023-05-07T10:17:04;3.20;;;1.98;;
28353;SDS011;15603;50.878;8.036;2023-05-07T10:19:32;4.35;;;2.63;;
28353;SDS011;15603;50.878;8.036;2023-05-07T10:22:05;5.57;;;1.50;;
28353;SDS011;15603;50.878;8.036;2023-05-07T10:24:37;3.78;;;1.95;;
28353;SDS011;15603;50.878;8.036;2023-05-07T10:27:12;3.40;;;1.83;;
28353;SDS011;15603;50.878;8.036;2023-05-07T10:32:45;8.75;;;1.98;;
28353;SDS011;15603;50.878;8.036;2023-05-07T10:35:23;3.92;;;1.60;;
28353;SDS011;15603;50.878;8.036;2023-05-07T10:37:53;6.28;;;2.08;;
28353;SDS011;15603;50.878;8.036;2023-05-07T10:40:24;4.63;;;2.10;;
28353;SDS011;15603;50.878;8.036;2023-05-07T10:42:53;8.02;;;1.52;;
28353;SDS011;15603;50.878;8.036;2023-05-07T10:45:25;2.75;;;1.75;;
28353;SDS011;15603;50.878;8.036;2023-05-07T10:48:14;4.38;;;1.88;;
28353;SDS011;15603;50.878;8.036;2023-05-07T10:50:51;3.80;;;1.73;;
28353;SDS011;15603;50.878;8.036;2023-05-07T10:53:47;3.63;;;2.00;;
28353;SDS011;15603;50.878;8.036;2023-05-07T10:58:53;3.88;;;1.85;;
28353;SDS011;15603;50.878;8.036;2023-05-07T11:04:29;3.55;;;1.67;;
28353;SDS011;15603;50.878;8.036;2023-05-07T11:07:14;2.92;;;1.60;;
28353;SDS011;15603;50.878;8.036;2023-05-07T11:09:54;5.28;;;1.95;;
28353;SDS011;15603;50.878;8.036;2023-05-07T11:15:10;2.40;;;1.42;;
28353;SDS011;15603;50.878;8.036;2023-05-07T11:17:52;3.22;;;1.40;;
28353;SDS011;15603;50.878;8.036;2023-05-07T11:26:22;4.22;;;1.58;;
28353;SDS011;15603;50.878;8.036;2023-05-07T11:28:49;6.00;;;2.22;;
28353;SDS011;15603;50.878;8.036;2023-05-07T11:31:26;4.55;;;2.22;;
28353;SDS011;15603;50.878;8.036;2023-05-07T11:33:57;4.13;;;2.47;;
28353;SDS011;15603;50.878;8.036;2023-05-07T11:36:24;3.28;;;2.03;;
28353;SDS011;15603;50.878;8.036;2023-05-07T11:38:54;8.90;;;1.80;;
28353;SDS011;15603;50.878;8.036;2023-05-07T11:41:22;2.72;;;1.95;;
28353;SDS011;15603;50.878;8.036;2023-05-07T11:43:59;4.43;;;2.03;;
28353;SDS011;15603;50.878;8.036;2023-05-07T11:46:27;6.65;;;2.63;;
28353;SDS011;15603;50.878;8.036;2023-05-07T11:48:55;5.53;;;2.47;;
28353;SDS011;15603;50.878;8.036;2023-05-07T11:51:24;3.75;;;2.75;;
28353;SDS011;15603;50.878;8.036;2023-05-07T11:53:52;6.57;;;2.92;;
28353;SDS011;15603;50.878;8.036;2023-05-07T11:56:20;8.20;;;2.80;;
28353;SDS011;15603;50.878;8.036;2023-05-07T11:58:47;6.20;;;3.15;;
28353;SDS011;15603;50.878;8.036;2023-05-07T12:01:15;4.80;;;2.53;;
28353;SDS011;15603;50.878;8.036;2023-05-07T12:03:43;4.53;;;2.45;;
28353;SDS011;15603;50.878;8.036;2023-05-07T12:06:15;5.90;;;2.77;;
28353;SDS011;15603;50.878;8.036;2023-05-07T12:08:43;3.38;;;2.65;;
28353;SDS011;15603;50.878;8.036;2023-05-07T12:11:15;7.28;;;2.75;;
28353;SDS011;15603;50.878;8.036;2023-05-07T12:13:45;3.20;;;2.67;;
28353;SDS011;15603;50.878;8.036;2023-05-07T12:16:12;9.18;;;2.35;;
28353;SDS011;15603;50.878;8.036;2023-05-07T12:18:40;5.47;;;2.63;;
28353;SDS011;15603;50.878;8.036;2023-05-07T12:21:08;5.40;;;2.70;;
28353;SDS011;15603;50.878;8.036;2023-05-07T12:23:35;4.40;;;2.85;;
28353;SDS011;15603;50.878;8.036;2023-05-07T12:26:03;6.13;;;3.10;;
28353;SDS011;15603;50.878;8.036;2023-05-07T12:28:37;4.57;;;2.60;;
28353;SDS011;15603;50.878;8.036;2023-05-07T12:31:05;3.55;;;2.28;;
28353;SDS011;15603;50.878;8.036;2023-05-07T12:33:33;5.30;;;2.28;;
28353;SDS011;15603;50.878;8.036;2023-05-07T12:36:05;8.45;;;2.65;;
28353;SDS011;15603;50.878;8.036;2023-05-07T12:38:39;5.43;;;3.03;;
28353;SDS011;15603;50.878;8.036;2023-05-07T12:41:08;7.15;;;2.15;;
28353;SDS011;15603;50.878;8.036;2023-05-07T12:43:36;4.93;;;2.55;;
28353;SDS011;15603;50.878;8.036;2023-05-07T12:46:06;4.85;;;2.63;;
28353;SDS011;15603;50.878;8.036;2023-05-07T12:48:35;5.18;;;2.83;;
28353;SDS011;15603;50.878;8.036;2023-05-07T12:51:04;9.55;;;2.63;;
28353;SDS011;15603;50.878;8.036;2023-05-07T12:53:32;12.55;;;3.22;;
28353;SDS011;15603;50.878;8.036;2023-05-07T12:55:59;8.55;;;2.58;;
28353;SDS011;15603;50.878;8.036;2023-05-07T13:00:56;5.82;;;2.35;;
28353;SDS011;15603;50.878;8.036;2023-05-07T13:03:30;3.08;;;2.00;;
28353;SDS011;15603;50.878;8.036;2023-05-07T13:06:03;4.43;;;2.30;;
28353;SDS011;15603;50.878;8.036;2023-05-07T13:08:35;4.43;;;2.63;;
28353;SDS011;15603;50.878;8.036;2023-05-07T13:11:07;4.47;;;2.40;;
28353;SDS011;15603;50.878;8.036;2023-05-07T13:13:35;5.78;;;2.35;;
28353;SDS011;15603;50.878;8.036;2023-05-07T13:16:04;6.18;;;2.38;;
28353;SDS011;15603;50.878;8.036;2023-05-07T13:18:32;5.50;;;2.53;;
28353;SDS011;15603;50.878;8.036;2023-05-07T13:21:00;3.40;;;2.17;;
28353;SDS011;15603;50.878;8.036;2023-05-07T13:23:28;3.33;;;2.40;;
28353;SDS011;15603;50.878;8.036;2023-05-07T13:25:55;3.15;;;2.47;;
28353;SDS011;15603;50.878;8.036;2023-05-07T13:28:23;4.00;;;2.35;;
28353;SDS011;15603;50.878;8.036;2023-05-07T13:30:51;4.88;;;2.45;;
28353;SDS011;15603;50.878;8.036;2023-05-07T13:33:19;5.28;;;2.50;;
28353;SDS011;15603;50.878;8.036;2023-05-07T13:35:46;3.70;;;2.47;;
28353;SDS011;15603;50.878;8.036;2023-05-07T13:38:13;4.45;;;2.15;;
28353;SDS011;15603;50.878;8.036;2023-05-07T13:40:42;2.78;;;1.90;;
28353;SDS011;15603;50.878;8.036;2023-05-07T13:43:09;3.13;;;2.28;;
28353;SDS011;15603;50.878;8.036;2023-05-07T13:45:37;3.20;;;2.00;;
28353;SDS011;15603;50.878;8.036;2023-05-07T13:48:04;5.88;;;2.20;;
28353;SDS011;15603;50.878;8.036;2023-05-07T13:50:31;3.63;;;2.13;;
28353;SDS011;15603;50.878;8.036;2023-05-07T13:52:58;6.20;;;1.83;;
28353;SDS011;15603;50.878;8.036;2023-05-07T13:55:25;3.33;;;2.10;;
28353;SDS011;15603;50.878;8.036;2023-05-07T13:57:56;4.10;;;2.00;;
28353;SDS011;15603;50.878;8.036;2023-05-07T14:00:27;3.20;;;1.90;;
28353;SDS011;15603;50.878;8.036;2023-05-07T14:02:55;4.22;;;2.25;;
28353;SDS011;15603;50.878;8.036;2023-05-07T14:05:23;2.20;;;1.67;;
28353;SDS011;15603;50.878;8.036;2023-05-07T14:07:51;3.55;;;2.08;;
28353;SDS011;15603;50.878;8.036;2023-05-07T14:10:18;2.53;;;1.90;;
28353;SDS011;15603;50.878;8.036;2023-05-07T14:12:46;3.58;;;1.90;;
28353;SDS011;15603;50.878;8.036;2023-05-07T14:15:14;10.27;;;2.08;;
28353;SDS011;15603;50.878;8.036;2023-05-07T14:17:43;4.72;;;2.20;;
28353;SDS011;15603;50.878;8.036;2023-05-07T14:20:11;3.15;;;1.88;;
28353;SDS011;15603;50.878;8.036;2023-05-07T14:22:39;6.90;;;2.25;;
28353;SDS011;15603;50.878;8.036;2023-05-07T14:25:08;4.32;;;2.42;;
28353;SDS011;15603;50.878;8.036;2023-05-07T14:27:36;5.22;;;2.47;;
28353;SDS011;15603;50.878;8.036;2023-05-07T14:30:04;4.55;;;1.95;;
28353;SDS011;15603;50.878;8.036;2023-05-07T14:32:32;3.88;;;1.92;;
28353;SDS011;15603;50.878;8.036;2023-05-07T14:34:59;5.88;;;2.35;;
28353;SDS011;15603;50.878;8.036;2023-05-07T14:37:27;7.05;;;2.22;;
28353;SDS011;15603;50.878;8.036;2023-05-07T14:39:54;4.70;;;1.92;;
28353;SDS011;15603;50.878;8.036;2023-05-07T14:42:21;3.72;;;2.45;;
28353;SDS011;15603;50.878;8.036;2023-05-07T14:44:48;3.38;;;2.72;;
28353;SDS011;15603;50.878;8.036;2023-05-07T14:47:15;5.05;;;2.50;;
28353;SDS011;15603;50.878;8.036;2023-05-07T14:49:45;4.32;;;2.67;;
28353;SDS011;15603;50.878;8.036;2023-05-07T14:52:12;4.75;;;2.45;;
28353;SDS011;15603;50.878;8.036;2023-05-07T14:54:39;6.00;;;2.72;;
28353;SDS011;15603;50.878;8.036;2023-05-07T14:57:07;4.57;;;2.47;;
28353;SDS011;15603;50.878;8.036;2023-05-07T14:59:37;8.20;;;3.00;;
28353;SDS011;15603;50.878;8.036;2023-05-07T15:02:05;3.38;;;2.30;;
28353;SDS011;15603;50.878;8.036;2023-05-07T15:04:36;6.57;;;2.55;;
28353;SDS011;15603;50.878;8.036;2023-05-07T15:07:04;5.45;;;3.17;;
28353;SDS011;15603;50.878;8.036;2023-05-07T15:09:32;6.28;;;3.38;;
28353;SDS011;15603;50.878;8.036;2023-05-07T15:11:59;10.50;;;4.65;;
28353;SDS011;15603;50.878;8.036;2023-05-07T15:14:26;23.58;;;13.27;;
28353;SDS011;15603;50.878;8.036;2023-05-07T15:16:53;12.13;;;5.95;;
28353;SDS011;15603;50.878;8.036;2023-05-07T15:19:20;11.48;;;5.80;;